Bay Phoenix — A8OE5 — position and weather

sailwx.info

Track history (hours):
 
Tides and Currents Weather Stations Pressure Air Temp Water Temp Dewpoint Dewpoint Depression Visibility Wind Speed Wind Dir Waves Ship Positions

Bay Phoenix

Last reported at 2014-Oct-25 21:05 UTC. Time now 2014-Oct-26 07:43 UTC.
Position N 35°43' W 000°38'.

Length 134 m; draft 6.8 m.

Type: Cargo ship. MMSI: 636015543.

Date/timePositionNaut miles runAvg speedWind from/ knotsBaromVisibWave heightAir tempDewpointWater temp
2014-Oct-25 21:05N 35°43' W 000°38'3 1.0
2014-Oct-25 18:10N 35°46' W 000°38'22316.3
2014-Oct-25 04:27N 35°59' W 005°13'8016.3
2014-Oct-24 23:33N 35°40' W 006°49'1616.4
2014-Oct-24 22:33N 35°33' W 007°07'7016.8
2014-Oct-24 18:22N 35°05' W 008°26'7017.9
2014-Oct-24 14:26N 34°37' W 009°44'5416.6
2014-Oct-24 11:12N 34°15' W 010°44'29316.6
2014-Oct-23 17:33N 32°18' W 016°05'1716.4
2014-Oct-23 16:32N 32°11' W 016°23'1616.4
2014-Oct-23 15:33N 32°05' W 016°41'1716.7
2014-Oct-23 14:33N 31°59' W 016°59'1716.5
2014-Oct-23 13:33N 31°54' W 017°18'1716.7
2014-Oct-23 12:33N 31°48' W 017°36'1716.7
2014-Oct-23 11:33N 31°42' W 017°54'1716.6
2014-Oct-23 10:32N 31°36' W 018°13'1616.5
2014-Oct-23 09:33N 31°30' W 018°31'1816.7
2014-Oct-23 08:29N 31°24' W 018°51'1616.9
2014-Oct-23 07:34N 31°18' W 019°07'  
2014-Oct-16 23:19N 16°52' W 061°22'1316.9
2014-Oct-16 22:33N 16°47' W 061°34'1716.7
2014-Oct-16 21:33N 16°40' W 061°50'1716.6
2014-Oct-16 20:33N 16°34' W 062°06'2316.8
2014-Oct-16 19:11N 16°25' W 062°29'  
Track history (hours):
 
Tides and Currents Weather Stations Pressure Air Temp Water Temp Dewpoint Dewpoint Depression Visibility Wind Speed Wind Dir Waves Ship Positions

Bay Phoenix

Last reported at 2014-Oct-25 21:05 UTC. Time now 2014-Oct-26 07:43 UTC.
Position N 35°43' W 000°38'.

Length 134 m; draft 6.8 m.

Type: Cargo ship. MMSI: 636015543.

Date/timePositionNaut miles runAvg speedWind from/ knotsBaromVisibWave heightAir tempDewpointWater temp
2014-Oct-25 21:05N 35°43' W 000°38'3 1.0
2014-Oct-25 18:10N 35°46' W 000°38'22316.3
2014-Oct-25 04:27N 35°59' W 005°13'8016.3
2014-Oct-24 23:33N 35°40' W 006°49'1616.4
2014-Oct-24 22:33N 35°33' W 007°07'7016.8
2014-Oct-24 18:22N 35°05' W 008°26'7017.9
2014-Oct-24 14:26N 34°37' W 009°44'5416.6
2014-Oct-24 11:12N 34°15' W 010°44'29316.6
2014-Oct-23 17:33N 32°18' W 016°05'1716.4
2014-Oct-23 16:32N 32°11' W 016°23'1616.4
2014-Oct-23 15:33N 32°05' W 016°41'1716.7
2014-Oct-23 14:33N 31°59' W 016°59'1716.5
2014-Oct-23 13:33N 31°54' W 017°18'1716.7
2014-Oct-23 12:33N 31°48' W 017°36'1716.7
2014-Oct-23 11:33N 31°42' W 017°54'1716.6
2014-Oct-23 10:32N 31°36' W 018°13'1616.5
2014-Oct-23 09:33N 31°30' W 018°31'1816.7
2014-Oct-23 08:29N 31°24' W 018°51'1616.9
2014-Oct-23 07:34N 31°18' W 019°07'  
2014-Oct-16 23:19N 16°52' W 061°22'1316.9
2014-Oct-16 22:33N 16°47' W 061°34'1716.7
2014-Oct-16 21:33N 16°40' W 061°50'1716.6
2014-Oct-16 20:33N 16°34' W 062°06'2316.8
2014-Oct-16 19:11N 16°25' W 062°29'  

Dump ship's entire track history